Us Gov Vessel — NSRP — position and weather

sailwx.info

Track history (hours):
 
Tides and Currents Weather Stations Pressure Air Temp Water Temp Dewpoint Dewpoint Depression Visibility Wind Speed Wind Dir Waves Ship Positions

Us Gov Vessel

Last reported at 2018-Feb-02 03:14 UTC. Time now 2018-Feb-26 03:53 UTC.
Position N 32°40' W 117°07'.
Warning: this ship's position is 24 days out of date.

; draft 9.3 m.

Type: Military. MMSI: 368926053.

Date/timePositionNaut miles runAvg speedWind from/ knotsBaromVisibWave heightAir tempDewpointWater temp
2018-Feb-02 03:14N 32°40' W 117°07'0 0.0
2018-Feb-02 02:57N 32°40' W 117°07'0 0.0
2018-Feb-02 02:29N 32°40' W 117°07'0 0.0
2018-Feb-02 01:58N 32°40' W 117°07'0 0.6
2018-Feb-02 01:30N 32°40' W 117°07'3 6.3
2018-Feb-02 01:00N 32°42' W 117°10'4 5.5
2018-Feb-02 00:17N 32°40' W 117°14'3 9.2
2018-Feb-02 00:00N 32°37' W 117°14'5 9.6
2018-Feb-01 23:30N 32°38' W 117°20'3 7.0
2018-Feb-01 23:00N 32°39' W 117°24'7 7.2
2018-Feb-01 22:00N 32°42' W 117°32'5 9.8
2018-Feb-01 21:30N 32°44' W 117°37'3115.6
2018-Feb-01 19:30N 33°08' W 118°01'815.7
2018-Feb-01 19:00N 33°15' W 118°05'611.1
2018-Feb-01 18:30N 33°20' W 118°07'815.2
2018-Feb-01 18:00N 33°28' W 118°10'815.0
2018-Feb-01 17:30N 33°35' W 118°13'510.8
2018-Feb-01 17:01N 33°39' W 118°09'510.1
2018-Feb-01 16:30N 33°43' W 118°06'1 2.2
2018-Feb-01 16:01N 33°44' W 118°06'0 0.0
2018-Feb-01 15:31N 33°44' W 118°06'  
2018-Jan-29 16:03N 33°44' W 118°06'0 0.0
2018-Jan-29 16:01N 33°44' W 118°06'1 1.3
2018-Jan-29 15:31N 33°44' W 118°06'4 7.3
2018-Jan-29 15:00N 33°40' W 118°05'5 9.1
2018-Jan-29 14:30N 33°37' W 118°09'612.0
2018-Jan-29 14:00N 33°36' W 118°16'  
Track history (hours):
 
Tides and Currents Weather Stations Pressure Air Temp Water Temp Dewpoint Dewpoint Depression Visibility Wind Speed Wind Dir Waves Ship Positions

Us Gov Vessel

Last reported at 2018-Feb-02 03:14 UTC. Time now 2018-Feb-26 03:53 UTC.
Position N 32°40' W 117°07'.
Warning: this ship's position is 24 days out of date.

; draft 9.3 m.

Type: Military. MMSI: 368926053.

Date/timePositionNaut miles runAvg speedWind from/ knotsBaromVisibWave heightAir tempDewpointWater temp
2018-Feb-02 03:14N 32°40' W 117°07'0 0.0
2018-Feb-02 02:57N 32°40' W 117°07'0 0.0
2018-Feb-02 02:29N 32°40' W 117°07'0 0.0
2018-Feb-02 01:58N 32°40' W 117°07'0 0.6
2018-Feb-02 01:30N 32°40' W 117°07'3 6.3
2018-Feb-02 01:00N 32°42' W 117°10'4 5.5
2018-Feb-02 00:17N 32°40' W 117°14'3 9.2
2018-Feb-02 00:00N 32°37' W 117°14'5 9.6
2018-Feb-01 23:30N 32°38' W 117°20'3 7.0
2018-Feb-01 23:00N 32°39' W 117°24'7 7.2
2018-Feb-01 22:00N 32°42' W 117°32'5 9.8
2018-Feb-01 21:30N 32°44' W 117°37'3115.6
2018-Feb-01 19:30N 33°08' W 118°01'815.7
2018-Feb-01 19:00N 33°15' W 118°05'611.1
2018-Feb-01 18:30N 33°20' W 118°07'815.2
2018-Feb-01 18:00N 33°28' W 118°10'815.0
2018-Feb-01 17:30N 33°35' W 118°13'510.8
2018-Feb-01 17:01N 33°39' W 118°09'510.1
2018-Feb-01 16:30N 33°43' W 118°06'1 2.2
2018-Feb-01 16:01N 33°44' W 118°06'0 0.0
2018-Feb-01 15:31N 33°44' W 118°06'  
2018-Jan-29 16:03N 33°44' W 118°06'0 0.0
2018-Jan-29 16:01N 33°44' W 118°06'1 1.3
2018-Jan-29 15:31N 33°44' W 118°06'4 7.3
2018-Jan-29 15:00N 33°40' W 118°05'5 9.1
2018-Jan-29 14:30N 33°37' W 118°09'612.0
2018-Jan-29 14:00N 33°36' W 118°16'  

Dump ship's entire track history